createdAt,value
2022-11-04T00:02:05.989Z,90.00
2022-11-04T00:04:32.710Z,90.00
2022-11-04T00:06:59.477Z,89.90
2022-11-04T00:09:28.463Z,89.90
2022-11-04T00:12:14.500Z,89.90
2022-11-04T00:14:41.294Z,89.90
2022-11-04T00:17:21.944Z,89.90
2022-11-04T00:20:11.318Z,89.90
2022-11-04T00:22:57.327Z,89.90
2022-11-04T00:25:42.469Z,89.90
2022-11-04T00:28:35.648Z,89.90
2022-11-04T00:31:23.416Z,89.90
2022-11-04T00:33:51.650Z,89.90
2022-11-04T00:36:18.894Z,90.00
2022-11-04T00:38:46.192Z,89.90
2022-11-04T00:41:29.725Z,89.90
2022-11-04T00:43:58.496Z,89.90
2022-11-04T00:46:25.947Z,89.90
2022-11-04T00:48:52.885Z,89.90
2022-11-04T00:51:21.307Z,89.90
2022-11-04T00:53:48.174Z,89.80
2022-11-04T00:56:17.882Z,89.90
2022-11-04T00:58:44.480Z,89.80
2022-11-04T01:01:13.790Z,89.80
2022-11-04T01:03:40.447Z,89.90
2022-11-04T01:06:07.222Z,89.90
2022-11-04T01:08:34.490Z,89.90
2022-11-04T01:11:05.522Z,89.80
2022-11-04T01:13:32.621Z,89.90
2022-11-04T01:16:07.093Z,89.80
2022-11-04T01:18:34.620Z,89.80
2022-11-04T01:21:07.508Z,89.80
2022-11-04T01:23:35.075Z,90.20
2022-11-04T01:26:03.071Z,89.80
2022-11-04T01:28:29.759Z,89.80
2022-11-04T01:30:58.989Z,89.80
2022-11-04T01:33:25.556Z,89.80
2022-11-04T01:35:52.425Z,89.80
2022-11-04T01:38:19.156Z,89.80
2022-11-04T01:40:46.283Z,89.80
2022-11-04T01:43:19.113Z,89.80
2022-11-04T01:45:53.398Z,89.70
2022-11-04T01:48:25.058Z,89.80
2022-11-04T01:50:53.675Z,89.80
2022-11-04T01:53:31.720Z,89.80
2022-11-04T01:56:01.546Z,89.80
2022-11-04T01:58:33.919Z,89.80
2022-11-04T02:01:01.810Z,89.80
2022-11-04T02:03:30.927Z,89.70
2022-11-04T02:05:58.332Z,89.80
2022-11-04T02:08:25.787Z,89.80
2022-11-04T02:10:59.500Z,89.80
2022-11-04T02:13:28.020Z,89.70
2022-11-04T02:16:17.235Z,89.80
2022-11-04T02:18:54.303Z,89.70
2022-11-04T02:21:48.657Z,89.70
2022-11-04T02:24:36.354Z,89.70
2022-11-04T02:27:40.675Z,89.80
2022-11-04T02:30:08.687Z,89.80
2022-11-04T02:33:03.520Z,89.80
2022-11-04T02:36:01.109Z,89.80
2022-11-04T02:38:49.354Z,89.80
2022-11-04T02:41:32.563Z,89.70
2022-11-04T02:44:23.293Z,89.80
2022-11-04T02:47:02.398Z,89.80
2022-11-04T02:49:31.773Z,89.80
2022-11-04T02:52:09.734Z,89.70
2022-11-04T02:54:46.003Z,89.70
2022-11-04T02:57:21.643Z,89.80
2022-11-04T02:59:59.873Z,89.70
2022-11-04T03:02:51.168Z,89.70
2022-11-04T03:05:21.254Z,89.70
2022-11-04T03:07:52.076Z,89.70
2022-11-04T03:10:33.580Z,89.70
2022-11-04T03:13:14.071Z,89.70
2022-11-04T03:15:53.136Z,89.70
2022-11-04T03:18:53.500Z,89.70
2022-11-04T03:21:21.783Z,89.70
2022-11-04T03:23:48.400Z,89.70
2022-11-04T03:26:32.459Z,89.70
2022-11-04T03:29:21.504Z,89.70
2022-11-04T03:32:18.220Z,89.70
2022-11-04T03:34:45.062Z,89.70
2022-11-04T03:37:11.675Z,89.70
2022-11-04T03:39:38.317Z,89.70
2022-11-04T03:42:20.170Z,89.70
2022-11-04T03:44:50.679Z,89.80
2022-11-04T03:47:18.872Z,89.80
2022-11-04T03:49:47.989Z,89.80
2022-11-04T03:52:16.508Z,89.70
2022-11-04T03:54:43.660Z,89.70
2022-11-04T03:57:40.835Z,89.80
2022-11-04T04:00:14.841Z,89.80
2022-11-04T04:03:13.866Z,89.80
2022-11-04T04:06:05.906Z,89.70
2022-11-04T04:08:46.390Z,89.70
2022-11-04T04:11:39.138Z,89.80
2022-11-04T04:14:41.622Z,89.70
2022-11-04T04:17:20.733Z,89.80
2022-11-04T04:19:59.848Z,89.70
2022-11-04T04:22:34.195Z,89.70
2022-11-04T04:25:24.667Z,89.80
2022-11-04T04:27:52.911Z,89.70
2022-11-04T04:30:19.628Z,89.70
2022-11-04T04:32:48.392Z,89.80
2022-11-04T04:35:34.189Z,89.80
2022-11-04T04:38:23.642Z,89.80
2022-11-04T04:41:44.415Z,89.70
2022-11-04T04:44:43.888Z,89.70
2022-11-04T04:47:19.982Z,89.70
2022-11-04T04:49:57.886Z,89.80
2022-11-04T04:52:31.474Z,89.80
2022-11-04T04:54:58.300Z,89.80
2022-11-04T04:57:24.916Z,89.70
2022-11-04T04:59:51.499Z,89.80
2022-11-04T05:02:18.214Z,89.80
2022-11-04T05:04:44.863Z,89.70
2022-11-04T05:07:11.524Z,89.70
2022-11-04T05:09:38.089Z,89.70
2022-11-04T05:12:04.763Z,89.80
2022-11-04T05:14:31.422Z,89.80
2022-11-04T05:16:58.092Z,89.70
2022-11-04T05:19:24.691Z,89.80
2022-11-04T05:21:51.281Z,89.80
2022-11-04T05:24:17.825Z,89.70
2022-11-04T05:26:44.396Z,89.80
2022-11-04T05:29:12.341Z,89.70
2022-11-04T05:31:39.358Z,89.70
2022-11-04T05:34:06.275Z,89.70
2022-11-04T05:36:33.200Z,89.70
2022-11-04T05:38:59.826Z,89.70
2022-11-04T05:41:26.601Z,89.70
2022-11-04T05:44:04.108Z,89.70
2022-11-04T05:46:31.229Z,90.10
2022-11-04T05:48:57.836Z,89.70
2022-11-04T05:51:26.943Z,89.70
2022-11-04T05:53:53.880Z,89.80
2022-11-04T05:56:20.942Z,89.80
2022-11-04T05:58:47.492Z,89.70
2022-11-04T06:01:24.380Z,89.70
2022-11-04T06:03:52.171Z,89.70
2022-11-04T06:06:19.554Z,89.90
2022-11-04T06:08:46.173Z,89.80
2022-11-04T06:11:12.967Z,89.90
2022-11-04T06:13:39.551Z,84.30
2022-11-04T06:16:06.356Z,86.00
2022-11-04T06:18:32.914Z,86.60
2022-11-04T06:21:11.015Z,86.70
2022-11-04T06:23:37.563Z,87.50
2022-11-04T06:26:04.655Z,87.60
2022-11-04T06:28:31.465Z,87.70
2022-11-04T06:30:59.051Z,88.20
2022-11-04T06:33:25.735Z,88.40
2022-11-04T06:35:52.607Z,88.60
2022-11-04T06:38:19.188Z,89.30
2022-11-04T06:40:45.790Z,89.30
2022-11-04T06:43:12.348Z,88.30
2022-11-04T06:45:38.893Z,88.30
2022-11-04T06:48:05.836Z,88.30
2022-11-04T06:50:32.407Z,88.20
2022-11-04T06:52:59.231Z,88.10
2022-11-04T06:55:25.771Z,88.10
2022-11-04T06:57:52.379Z,85.20
2022-11-04T07:00:19.020Z,85.00
2022-11-04T07:02:45.722Z,86.90
2022-11-04T07:05:13.205Z,87.00
2022-11-04T07:07:39.775Z,87.20
2022-11-04T07:10:06.658Z,87.50
2022-11-04T07:12:33.191Z,87.80
2022-11-04T07:14:59.847Z,88.30
2022-11-04T07:17:26.489Z,88.40
2022-11-04T07:19:53.032Z,88.20
2022-11-04T07:22:19.568Z,88.00
2022-11-04T07:24:46.116Z,87.70
2022-11-04T07:27:12.752Z,87.60
2022-11-04T07:29:39.319Z,88.20
2022-11-04T07:32:06.080Z,87.70
2022-11-04T07:34:32.681Z,87.70
2022-11-04T07:36:59.233Z,87.70
2022-11-04T07:39:25.852Z,87.80
2022-11-04T07:41:58.326Z,87.90
2022-11-04T07:44:26.014Z,88.00
2022-11-04T07:46:52.645Z,88.30
2022-11-04T07:49:19.219Z,88.40
2022-11-04T07:51:45.740Z,88.60
2022-11-04T07:54:12.284Z,88.50
2022-11-04T07:56:38.803Z,88.80
2022-11-04T07:59:06.898Z,88.90
2022-11-04T08:01:34.106Z,88.90
2022-11-04T08:04:00.843Z,89.00
2022-11-04T08:06:27.399Z,89.00
2022-11-04T08:08:54.283Z,89.20
2022-11-04T08:11:28.260Z,89.20
2022-11-04T08:13:55.748Z,89.20
2022-11-04T08:16:24.239Z,89.30
2022-11-04T08:18:55.519Z,89.30
2022-11-04T08:21:22.162Z,86.00
2022-11-04T08:23:51.395Z,89.50
2022-11-04T08:26:20.960Z,90.00
2022-11-04T08:28:47.992Z,89.90
2022-11-04T08:31:26.204Z,89.50
2022-11-04T08:33:53.922Z,84.30
2022-11-04T08:36:26.969Z,85.40
2022-11-04T08:38:54.091Z,88.70
2022-11-04T08:41:34.445Z,90.00
2022-11-04T08:44:03.689Z,87.00
2022-11-04T08:46:35.175Z,84.80
2022-11-04T08:49:05.702Z,85.40
2022-11-04T08:51:38.072Z,86.40
2022-11-04T08:54:05.544Z,87.80
2022-11-04T08:56:38.003Z,88.30
2022-11-04T08:59:05.379Z,88.30
2022-11-04T09:01:36.051Z,87.90
2022-11-04T09:04:03.569Z,87.50
2022-11-04T09:06:34.760Z,87.20
2022-11-04T09:09:04.572Z,87.10
2022-11-04T09:11:33.336Z,86.90
2022-11-04T09:14:01.602Z,86.80
2022-11-04T09:16:30.021Z,86.70
2022-11-04T09:18:57.489Z,86.60
2022-11-04T09:21:25.578Z,86.60
2022-11-04T09:23:52.630Z,86.50
2022-11-04T09:26:20.441Z,86.50
2022-11-04T09:28:47.029Z,86.40
2022-11-04T09:31:16.807Z,86.50
2022-11-04T09:33:43.505Z,86.50
2022-11-04T09:36:11.366Z,86.40
2022-11-04T09:38:40.084Z,86.40
2022-11-04T09:41:23.754Z,86.50
2022-11-04T09:44:19.487Z,86.40
2022-11-04T09:46:49.293Z,86.60
2022-11-04T09:49:19.131Z,86.50
2022-11-04T09:51:54.324Z,86.70
2022-11-04T09:54:32.923Z,86.70
2022-11-04T09:57:02.417Z,86.60
2022-11-04T09:59:32.659Z,86.60
2022-11-04T10:01:59.570Z,86.60
2022-11-04T10:04:52.482Z,86.60
2022-11-04T10:07:38.510Z,86.70
2022-11-04T10:10:08.223Z,86.70
2022-11-04T10:12:49.479Z,86.70
2022-11-04T10:15:38.220Z,86.80
2022-11-04T10:18:29.424Z,86.80
2022-11-04T10:21:20.959Z,86.90
2022-11-04T10:24:05.426Z,86.90
2022-11-04T10:27:06.815Z,86.90
2022-11-04T10:29:38.368Z,86.90
2022-11-04T10:32:18.096Z,86.90
2022-11-04T10:34:58.242Z,86.90
2022-11-04T10:37:26.541Z,86.90
2022-11-04T10:40:07.000Z,86.90
2022-11-04T10:42:33.608Z,85.40
2022-11-04T10:45:00.188Z,87.20
2022-11-04T10:47:43.474Z,87.20
2022-11-04T10:50:30.508Z,87.40
2022-11-04T10:53:16.286Z,87.30
2022-11-04T10:56:05.014Z,87.40
2022-11-04T10:58:36.397Z,87.60
2022-11-04T11:01:23.659Z,87.70
2022-11-04T11:03:50.304Z,87.80
2022-11-04T11:06:27.814Z,87.80
2022-11-04T11:09:01.252Z,87.90
2022-11-04T11:11:49.975Z,88.00
2022-11-04T11:14:18.200Z,88.00
2022-11-04T11:16:45.686Z,87.60
2022-11-04T11:19:12.190Z,87.60
2022-11-04T11:21:50.035Z,87.50
2022-11-04T11:24:24.339Z,87.50
2022-11-04T11:26:54.971Z,87.30
2022-11-04T11:29:31.661Z,87.30
2022-11-04T11:32:00.626Z,87.30
2022-11-04T11:34:34.201Z,87.10
2022-11-04T11:37:05.550Z,87.30
2022-11-04T11:39:34.828Z,87.40
2022-11-04T11:42:06.810Z,87.20
2022-11-04T11:44:48.637Z,87.30
2022-11-04T11:47:36.820Z,87.40
2022-11-04T11:50:15.823Z,87.60
2022-11-04T11:52:44.163Z,87.70
2022-11-04T11:55:24.816Z,87.80
2022-11-04T12:01:19.368Z,87.80
2022-11-04T12:09:54.353Z,88.00
2022-11-04T12:12:35.522Z,88.00
2022-11-04T12:15:14.363Z,88.00
2022-11-04T12:17:47.193Z,88.00
2022-11-04T12:20:32.504Z,87.90
2022-11-04T12:23:03.320Z,88.00
2022-11-04T12:25:48.017Z,88.00
2022-11-04T12:28:35.172Z,88.00
2022-11-04T12:31:10.701Z,88.00
2022-11-04T12:33:54.697Z,88.10
2022-11-04T12:36:52.224Z,88.10
2022-11-04T12:39:44.326Z,88.10
2022-11-04T12:42:33.194Z,88.00
2022-11-04T12:45:21.218Z,88.30
2022-11-04T12:47:48.145Z,84.40
2022-11-04T12:50:42.372Z,88.60
2022-11-04T12:53:30.169Z,89.40
2022-11-04T12:56:07.655Z,88.90
2022-11-04T12:59:09.931Z,88.60
2022-11-04T13:01:46.917Z,88.60
2022-11-04T13:04:32.426Z,88.70
2022-11-04T13:07:03.912Z,88.90
2022-11-04T13:09:30.390Z,88.90
2022-11-04T13:12:14.622Z,88.90
2022-11-04T13:14:51.284Z,88.90
2022-11-04T13:17:23.871Z,88.70
2022-11-04T13:19:51.935Z,88.80
2022-11-04T13:22:24.069Z,88.90
2022-11-04T13:24:56.472Z,88.90
2022-11-04T13:27:26.608Z,88.10
2022-11-04T13:30:16.371Z,88.70
2022-11-04T13:33:05.324Z,88.60
2022-11-04T13:35:38.209Z,85.50
2022-11-04T13:38:13.031Z,88.70
2022-11-04T13:40:55.681Z,88.50
2022-11-04T13:43:41.649Z,88.40
2022-11-04T13:46:11.150Z,89.00
2022-11-04T13:49:02.621Z,88.20
2022-11-04T13:51:44.617Z,88.20
2022-11-04T13:54:45.613Z,88.10
2022-11-04T13:57:30.279Z,88.10
2022-11-04T14:00:14.658Z,88.20
2022-11-04T14:02:57.489Z,88.00
2022-11-04T14:05:27.188Z,88.70
2022-11-04T14:08:01.927Z,88.40
2022-11-04T14:10:48.409Z,88.20
2022-11-04T14:13:30.600Z,88.10
2022-11-04T14:16:05.771Z,88.60
2022-11-04T14:18:40.646Z,89.10
2022-11-04T14:21:12.958Z,89.00
2022-11-04T14:23:42.903Z,89.10
2022-11-04T14:26:15.182Z,89.40
2022-11-04T14:28:45.099Z,89.40
2022-11-04T14:31:17.573Z,89.50
2022-11-04T14:33:54.016Z,89.60
2022-11-04T14:36:20.693Z,89.50
2022-11-04T14:39:11.750Z,89.60
2022-11-04T14:41:41.098Z,89.40
2022-11-04T14:44:18.320Z,89.40
2022-11-04T14:46:47.217Z,89.30
2022-11-04T14:49:45.615Z,89.30
2022-11-04T14:52:34.965Z,89.40
2022-11-04T14:55:11.566Z,89.40
2022-11-04T14:57:43.386Z,89.40
2022-11-04T15:00:23.743Z,90.00
2022-11-04T15:03:57.877Z,89.60
2022-11-04T15:06:09.861Z,89.70
2022-11-04T15:08:42.434Z,89.70
2022-11-04T15:11:38.432Z,89.70
2022-11-04T15:14:13.419Z,89.80
2022-11-04T15:16:40.492Z,89.80
2022-11-04T15:19:10.187Z,89.80
2022-11-04T15:21:41.371Z,89.80
2022-11-04T15:24:16.429Z,89.90
2022-11-04T15:26:48.697Z,90.00
2022-11-04T15:29:16.762Z,90.00
2022-11-04T15:31:55.830Z,89.90
2022-11-04T15:34:24.540Z,89.90
2022-11-04T15:36:54.382Z,90.00
2022-11-04T15:39:31.250Z,90.00
2022-11-04T15:42:21.025Z,90.00
2022-11-04T15:44:51.367Z,90.00
2022-11-04T15:47:17.897Z,90.00
2022-11-04T15:49:45.930Z,90.00
2022-11-04T15:52:16.682Z,90.00
2022-11-04T15:54:49.036Z,90.00
2022-11-04T15:57:27.687Z,90.00
2022-11-04T16:00:01.745Z,90.30
2022-11-04T16:02:32.040Z,90.00
2022-11-04T16:05:10.753Z,90.00
2022-11-04T16:07:41.573Z,90.00
2022-11-04T16:10:41.041Z,90.10
2022-11-04T16:13:16.767Z,90.10
2022-11-04T16:15:58.684Z,87.80
2022-11-04T16:18:26.548Z,90.70
2022-11-04T16:20:54.429Z,90.50
2022-11-04T16:23:24.779Z,90.30
2022-11-04T16:26:06.046Z,90.20
2022-11-04T16:28:38.270Z,90.10
2022-11-04T16:31:26.653Z,90.10
2022-11-04T16:33:53.315Z,90.20
2022-11-04T16:36:29.691Z,90.10
2022-11-04T16:39:03.654Z,90.10
2022-11-04T16:41:34.320Z,90.10
2022-11-04T16:44:00.863Z,90.10
2022-11-04T16:46:27.793Z,90.10
2022-11-04T16:48:54.325Z,90.10
2022-11-04T16:51:22.683Z,90.20
2022-11-04T16:53:51.897Z,90.20
2022-11-04T16:56:21.703Z,90.20
2022-11-04T16:58:48.557Z,90.20
2022-11-04T17:01:15.528Z,90.20
2022-11-04T17:03:43.125Z,90.30
2022-11-04T17:06:12.263Z,90.30
2022-11-04T17:08:39.226Z,90.30
2022-11-04T17:11:06.352Z,90.40
2022-11-04T17:13:36.345Z,90.40
2022-11-04T17:16:04.846Z,90.40
2022-11-04T17:18:32.888Z,90.40
2022-11-04T17:21:02.404Z,90.40
2022-11-04T17:23:28.928Z,90.40
2022-11-04T17:25:55.540Z,90.40
2022-11-04T17:28:22.180Z,90.40
2022-11-04T17:30:48.969Z,90.40
2022-11-04T17:33:17.239Z,90.40
2022-11-04T17:35:48.188Z,90.40
2022-11-04T17:38:15.370Z,90.40
2022-11-04T17:41:00.349Z,90.50
2022-11-04T17:43:45.745Z,90.40
2022-11-04T17:46:31.437Z,90.30
2022-11-04T17:48:58.393Z,90.30
2022-11-04T17:51:25.181Z,90.30
2022-11-04T17:53:52.098Z,90.40
2022-11-04T17:56:21.210Z,90.40
2022-11-04T17:58:48.532Z,90.50
2022-11-04T18:01:17.637Z,90.50
2022-11-04T18:03:44.305Z,90.50
2022-11-04T18:06:10.984Z,90.50
2022-11-04T18:08:37.733Z,86.30
2022-11-04T18:11:10.023Z,87.40
2022-11-04T18:13:36.889Z,90.70
2022-11-04T18:16:13.595Z,91.00
2022-11-04T18:18:40.522Z,90.80
2022-11-04T18:21:08.461Z,90.60
2022-11-04T18:23:35.146Z,90.40
2022-11-04T18:26:02.836Z,90.40
2022-11-04T18:28:29.462Z,90.30
2022-11-04T18:30:56.058Z,90.40
2022-11-04T18:33:22.661Z,90.60
2022-11-04T18:35:49.231Z,90.30
2022-11-04T18:38:15.772Z,90.30
2022-11-04T18:40:42.308Z,90.40
2022-11-04T18:43:09.378Z,90.10
2022-11-04T18:45:36.796Z,90.70
2022-11-04T18:48:03.674Z,90.70
2022-11-04T18:50:31.338Z,90.70
2022-11-04T18:52:57.867Z,90.80
2022-11-04T18:55:24.428Z,90.70
2022-11-04T18:57:55.396Z,90.60
2022-11-04T19:00:22.491Z,90.50
2022-11-04T19:02:49.136Z,90.50
2022-11-04T19:05:15.907Z,90.50
2022-11-04T19:07:42.447Z,90.60
2022-11-04T19:10:09.768Z,90.50
2022-11-04T19:12:54.780Z,90.50
2022-11-04T19:15:21.395Z,90.60
2022-11-04T19:17:48.002Z,90.60
2022-11-04T19:20:14.546Z,90.60
2022-11-04T19:22:41.514Z,90.60
2022-11-04T19:25:09.450Z,90.70
2022-11-04T19:27:36.247Z,90.60
2022-11-04T19:30:03.171Z,90.50
2022-11-04T19:32:29.729Z,90.80
2022-11-04T19:34:56.253Z,90.70
2022-11-04T19:37:22.824Z,90.70
2022-11-04T19:39:49.359Z,90.70
2022-11-04T19:42:34.885Z,90.70
2022-11-04T19:45:01.441Z,90.70
2022-11-04T19:47:27.996Z,90.70
2022-11-04T19:49:55.503Z,90.80
2022-11-04T19:52:22.092Z,90.70
2022-11-04T19:54:48.643Z,90.80
2022-11-04T19:57:15.384Z,90.80
2022-11-04T19:59:41.975Z,90.90
2022-11-04T20:02:13.291Z,91.00
2022-11-04T20:04:39.984Z,91.00
2022-11-04T20:07:06.929Z,91.00
2022-11-04T20:09:33.443Z,90.80
2022-11-04T20:12:18.446Z,90.90
2022-11-04T20:14:45.104Z,90.90
2022-11-04T20:17:11.629Z,91.10
2022-11-04T20:19:38.210Z,91.00
2022-11-04T20:22:04.773Z,90.40
2022-11-04T20:24:31.349Z,91.40
2022-11-04T20:26:58.004Z,91.30
2022-11-04T20:29:24.590Z,91.30
2022-11-04T20:31:51.395Z,91.20
2022-11-04T20:34:17.920Z,91.20
2022-11-04T20:36:44.510Z,91.30
2022-11-04T20:39:16.418Z,91.20
2022-11-04T20:41:44.064Z,91.30
2022-11-04T20:44:12.180Z,90.30
2022-11-04T20:46:39.506Z,91.50
2022-11-04T20:49:06.301Z,91.30
2022-11-04T20:51:35.933Z,91.30
2022-11-04T20:54:06.668Z,91.30
2022-11-04T20:56:38.384Z,91.40
2022-11-04T20:59:06.149Z,91.40
2022-11-04T21:01:35.008Z,91.40
2022-11-04T21:04:08.104Z,91.50
2022-11-04T21:06:38.804Z,91.50
2022-11-04T21:09:08.199Z,91.60
2022-11-04T21:11:35.665Z,91.60
2022-11-04T21:14:04.202Z,91.50
2022-11-04T21:16:30.801Z,91.60
2022-11-04T21:18:57.790Z,91.60
2022-11-04T21:21:27.630Z,91.60
2022-11-04T21:24:01.742Z,91.50
2022-11-04T21:26:30.544Z,91.50
2022-11-04T21:29:00.733Z,91.50
2022-11-04T21:31:28.815Z,91.60
2022-11-04T21:33:56.054Z,91.00
2022-11-04T21:36:22.965Z,91.80
2022-11-04T21:38:49.798Z,91.60
2022-11-04T21:41:18.908Z,91.60
2022-11-04T21:43:45.646Z,91.60
2022-11-04T21:46:16.139Z,91.60
2022-11-04T21:48:43.138Z,91.60
2022-11-04T21:51:13.517Z,91.60
2022-11-04T21:53:40.521Z,91.60
2022-11-04T21:56:13.104Z,91.60
2022-11-04T21:58:40.133Z,91.60
2022-11-04T22:01:08.158Z,91.80
2022-11-04T22:03:34.998Z,91.60
2022-11-04T22:06:10.166Z,91.70
2022-11-04T22:08:37.560Z,91.60
2022-11-04T22:11:16.190Z,91.60
2022-11-04T22:13:42.834Z,91.60
2022-11-04T22:16:19.716Z,91.60
2022-11-04T22:18:47.311Z,91.50
2022-11-04T22:21:18.157Z,91.50
2022-11-04T22:23:45.248Z,91.50
2022-11-04T22:26:20.048Z,91.50
2022-11-04T22:28:46.913Z,91.80
2022-11-04T22:31:17.267Z,91.50
2022-11-04T22:33:44.412Z,91.50
2022-11-04T22:36:11.946Z,91.50
2022-11-04T22:38:40.844Z,91.50
2022-11-04T22:41:10.385Z,91.40
2022-11-04T22:43:36.992Z,91.40
2022-11-04T22:46:08.328Z,91.40
2022-11-04T22:48:36.321Z,91.40
2022-11-04T22:51:06.910Z,91.40
2022-11-04T22:53:33.580Z,91.40
2022-11-04T22:56:01.407Z,91.40
2022-11-04T22:58:29.093Z,91.40
2022-11-04T23:01:01.904Z,91.40
2022-11-04T23:03:29.315Z,91.40
2022-11-04T23:05:58.007Z,91.40
2022-11-04T23:08:26.294Z,91.40
2022-11-04T23:11:16.921Z,91.40
2022-11-04T23:14:09.408Z,91.30
2022-11-04T23:16:54.748Z,91.30
2022-11-04T23:19:22.393Z,91.30
2022-11-04T23:22:10.006Z,91.30
2022-11-04T23:24:55.291Z,91.30
2022-11-04T23:27:40.636Z,91.30
2022-11-04T23:30:21.412Z,91.30
2022-11-04T23:33:03.146Z,91.30
2022-11-04T23:35:57.376Z,91.30
2022-11-04T23:38:25.314Z,91.20
2022-11-04T23:41:14.205Z,91.20
2022-11-04T23:43:40.918Z,91.20
2022-11-04T23:46:26.098Z,91.20
2022-11-04T23:49:11.444Z,91.20
2022-11-04T23:51:56.838Z,91.20
2022-11-04T23:54:42.115Z,91.20
2022-11-04T23:57:37.265Z,91.20
